Time;durP1;ratioP1;P1;durP2;ratioP2;P2;SDS_P1;SDS_P2;PMS_P1;PMS_P2;Temp;Humidity;BMP_temperature;BMP_pressure;BME280_temperature;BME280_humidity;BME280_pressure;Samples;Min_cycle;Max_cycle;Signal;HPM_P1;HPM_P2
2023/03/28 00:00:28;;;;;;;4.45;0.77;;;0.70;96.70;;;;;;4988453;28;20173;-83
2023/03/28 00:02:53;;;;;;;2.95;0.90;;;0.70;96.80;;;;;;4988122;28;20105;-83
2023/03/28 00:05:20;;;;;;;6.25;0.90;;;0.70;96.80;;;;;;4983795;28;20054;-83
2023/03/28 00:07:46;;;;;;;4.13;0.90;;;0.70;96.80;;;;;;4984210;28;20054;-83
2023/03/28 00:10:12;;;;;;;5.40;0.82;;;0.70;96.80;;;;;;4993238;28;20037;-83
2023/03/28 00:12:37;;;;;;;6.35;1.33;;;0.60;96.90;;;;;;4987498;28;20029;-83
2023/03/28 00:15:03;;;;;;;6.35;1.08;;;0.50;96.90;;;;;;4987877;28;20049;-83
2023/03/28 00:17:29;;;;;;;4.43;0.85;;;0.60;97.10;;;;;;4983993;28;20069;-83
2023/03/28 00:19:55;;;;;;;5.95;1.30;;;0.50;97.10;;;;;;4986752;28;20110;-85
2023/03/28 00:22:21;;;;;;;4.50;0.95;;;0.50;97.10;;;;;;4985087;28;20364;-83
2023/03/28 00:24:47;;;;;;;6.28;0.88;;;0.40;97.20;;;;;;4983951;28;20185;-84
2023/03/28 00:27:14;;;;;;;3.53;0.98;;;0.40;97.30;;;;;;4988061;28;20030;-83
2023/03/28 00:29:40;;;;;;;8.63;0.98;;;0.40;97.40;;;;;;4970093;28;20088;-83
2023/03/28 00:32:06;;;;;;;9.50;1.00;;;0.40;97.40;;;;;;4970248;28;20042;-83
2023/03/28 00:34:32;;;;;;;6.35;1.05;;;0.40;97.50;;;;;;4982138;28;20344;-83
2023/03/28 00:36:57;;;;;;;6.28;1.00;;;0.40;97.60;;;;;;4960041;28;20141;-83
2023/03/28 00:39:26;;;;;;;3.53;1.13;;;0.40;97.50;;;;;;4988545;28;20026;-84
2023/03/28 00:41:52;;;;;;;8.50;1.05;;;0.40;97.50;;;;;;4981151;28;20110;-83
2023/03/28 00:44:42;;;;;;;10.90;1.33;;;0.40;97.50;;;;;;4987276;28;20026;-83
2023/03/28 00:47:20;;;;;;;7.57;1.23;;;0.40;97.50;;;;;;4986931;28;20063;-84
2023/03/28 00:49:48;;;;;;;9.75;1.30;;;0.40;97.50;;;;;;4986231;28;20077;-84
2023/03/28 00:52:16;;;;;;;8.13;1.48;;;0.40;97.40;;;;;;4974248;28;20150;-83
2023/03/28 00:54:42;;;;;;;7.65;0.90;;;0.40;97.30;;;;;;4982530;28;20065;-84
2023/03/28 00:57:09;;;;;;;7.55;1.38;;;0.30;97.30;;;;;;4986841;28;22246;-84
2023/03/28 00:59:35;;;;;;;6.47;1.17;;;0.40;97.20;;;;;;4986318;28;20031;-83
2023/03/28 01:02:01;;;;;;;5.05;1.27;;;0.30;97.20;;;;;;4985009;28;20069;-84
2023/03/28 01:04:35;;;;;;;10.40;1.20;;;0.30;97.20;;;;;;4990324;28;20046;-83
2023/03/28 01:07:01;;;;;;;7.03;1.27;;;0.30;97.10;;;;;;4980547;28;20485;-83
2023/03/28 01:09:27;;;;;;;7.10;1.05;;;0.30;97.00;;;;;;4979092;28;20034;-84
2023/03/28 01:11:55;;;;;;;7.03;1.35;;;0.20;96.90;;;;;;4984837;28;20102;-84
2023/03/28 01:14:25;;;;;;;9.13;1.30;;;0.20;96.80;;;;;;4986223;28;20060;-85
2023/03/28 01:16:51;;;;;;;7.80;1.25;;;0.20;96.70;;;;;;4985295;28;20081;-83
2023/03/28 01:19:43;;;;;;;9.45;1.33;;;0.20;96.70;;;;;;4983241;28;20071;-83
2023/03/28 01:22:18;;;;;;;5.68;1.08;;;0.20;96.60;;;;;;4978374;28;20026;-84
2023/03/28 01:24:58;;;;;;;10.48;1.33;;;0.20;96.40;;;;;;4986741;28;20036;-84
2023/03/28 01:27:51;;;;;;;7.88;1.38;;;0.20;96.30;;;;;;4979573;28;20029;-84
2023/03/28 01:30:32;;;;;;;10.02;1.42;;;0.20;96.30;;;;;;4947810;28;20041;-84
2023/03/28 01:33:40;;;;;;;7.53;1.20;;;0.10;96.10;;;;;;4986960;28;20092;-85
2023/03/28 01:36:30;;;;;;;9.15;1.52;;;0.10;96.10;;;;;;4984595;28;20142;-85
2023/03/28 01:39:13;;;;;;;10.32;1.45;;;0.10;96.10;;;;;;4983282;28;20105;-84
2023/03/28 01:41:42;;;;;;;7.53;1.05;;;0.10;95.90;;;;;;4986112;28;20462;-85
2023/03/28 01:44:18;;;;;;;11.25;1.77;;;0.10;95.80;;;;;;4987513;28;20048;-84
2023/03/28 01:46:58;;;;;;;12.00;1.13;;;0.10;95.80;;;;;;4969173;28;20038;-84
2023/03/28 01:49:46;;;;;;;7.47;1.33;;;0.00;95.90;;;;;;4958941;28;20052;-84
2023/03/28 01:52:17;;;;;;;10.57;1.45;;;0.00;95.90;;;;;;4984773;28;20042;-84
2023/03/28 01:54:57;;;;;;;7.95;1.27;;;0.00;95.90;;;;;;4986251;28;20337;-84
2023/03/28 01:57:39;;;;;;;6.30;1.37;;;0.00;95.90;;;;;;4975463;28;20031;-84
2023/03/28 02:00:19;;;;;;;7.47;1.45;;;0.00;95.90;;;;;;4987979;28;20400;-84
2023/03/28 02:02:53;;;;;;;11.93;1.13;;;0.00;95.80;;;;;;4987591;28;20035;-84
2023/03/28 02:05:21;;;;;;;6.07;1.00;;;0.00;95.80;;;;;;4987308;28;20165;-84
2023/03/28 02:07:48;;;;;;;12.00;1.20;;;-3276.70;95.90;;;;;;4958123;28;20475;-84
2023/03/28 02:10:18;;;;;;;13.68;2.17;;;-3276.70;96.00;;;;;;4974497;28;20133;-84
2023/03/28 02:12:51;;;;;;;4.38;1.02;;;-3276.60;96.10;;;;;;4982212;28;20564;-83
2023/03/28 02:15:20;;;;;;;9.25;1.40;;;-3276.70;96.20;;;;;;4985622;28;20144;-83
2023/03/28 02:17:50;;;;;;;8.60;1.00;;;-3276.60;96.20;;;;;;4986733;28;20144;-83
2023/03/28 02:20:21;;;;;;;11.20;1.50;;;-3276.60;96.30;;;;;;4984191;28;20034;-83
2023/03/28 02:22:50;;;;;;;;;;;-3276.60;96.20;;;;;;4984681;28;20058;-84
2023/03/28 02:25:17;;;;;;;7.35;1.05;;;-3276.60;96.20;;;;;;4986515;28;20339;-83
2023/03/28 02:27:44;;;;;;;10.40;0.90;;;-3276.60;96.20;;;;;;4980666;28;20126;-84
2023/03/28 02:30:11;;;;;;;4.93;1.02;;;-3276.60;96.20;;;;;;4986623;28;20082;-84
2023/03/28 02:32:37;;;;;;;10.52;1.40;;;-3276.50;96.10;;;;;;4984776;28;20058;-84
2023/03/28 02:35:04;;;;;;;5.15;0.93;;;-3276.50;96.30;;;;;;4986526;28;20098;-83
2023/03/28 02:37:53;;;;;;;9.07;1.02;;;-3276.40;96.20;;;;;;4981571;28;20061;-83
2023/03/28 02:40:37;;;;;;;3.35;1.05;;;-3276.40;96.20;;;;;;4986558;28;20098;-84
2023/03/28 02:43:21;;;;;;;7.82;1.15;;;-3276.40;96.20;;;;;;4982743;28;20030;-83
2023/03/28 02:45:55;;;;;;;4.13;0.98;;;-3276.40;96.20;;;;;;4986430;28;20614;-84
2023/03/28 02:48:42;;;;;;;6.85;1.00;;;-3276.40;96.30;;;;;;4986464;28;20031;-83
2023/03/28 02:51:16;;;;;;;4.85;1.08;;;-3276.30;96.30;;;;;;4982516;28;20026;-83
2023/03/28 02:54:03;;;;;;;3.97;0.75;;;-3276.30;96.40;;;;;;4986699;28;20018;-84
2023/03/28 02:56:44;;;;;;;3.40;0.98;;;-3276.30;96.40;;;;;;4986101;28;20045;-83
2023/03/28 02:59:37;;;;;;;9.68;1.23;;;-3276.20;96.40;;;;;;4987927;28;20490;-83
2023/03/28 03:02:03;;;;;;;7.30;1.95;;;-3276.20;96.50;;;;;;4977301;28;20181;-83
2023/03/28 03:04:28;;;;;;;8.50;1.15;;;-3276.10;96.60;;;;;;4987277;28;20088;-83
2023/03/28 03:06:54;;;;;;;7.97;1.13;;;-3276.10;96.60;;;;;;4970878;28;20097;-83
2023/03/28 03:09:21;;;;;;;6.82;0.90;;;-3276.10;96.70;;;;;;4989007;28;20034;-83
2023/03/28 03:11:47;;;;;;;4.15;0.85;;;-3276.00;96.80;;;;;;4984923;28;20046;-83
2023/03/28 03:14:12;;;;;;;5.35;1.40;;;-3276.00;96.80;;;;;;4989779;28;20044;-83
2023/03/28 03:16:38;;;;;;;13.43;1.35;;;-3276.00;96.90;;;;;;4985793;28;20402;-83
2023/03/28 03:19:04;;;;;;;7.50;1.40;;;-3275.90;96.80;;;;;;4983366;28;20050;-83
2023/03/28 03:21:29;;;;;;;7.00;1.20;;;-3275.90;96.90;;;;;;4987018;28;20459;-84
2023/03/28 03:23:55;;;;;;;7.22;1.25;;;-3275.90;97.00;;;;;;4988762;28;20050;-83
2023/03/28 03:26:21;;;;;;;4.32;1.40;;;-3275.80;97.00;;;;;;4988419;28;20328;-83
2023/03/28 03:28:48;;;;;;;10.85;1.05;;;-3275.80;97.10;;;;;;4986409;28;20101;-84
2023/03/28 03:31:14;;;;;;;5.25;1.10;;;-3275.80;97.10;;;;;;4983538;28;20031;-83
2023/03/28 03:33:41;;;;;;;9.05;1.20;;;-3275.70;97.20;;;;;;4983511;28;20061;-83
2023/03/28 03:36:08;;;;;;;7.65;0.88;;;-3275.70;97.30;;;;;;4984777;28;20120;-84
2023/03/28 03:38:34;;;;;;;6.82;0.95;;;-3275.70;97.40;;;;;;4987016;28;20065;-83
2023/03/28 03:41:00;;;;;;;6.70;1.38;;;-3275.80;97.50;;;;;;4991548;28;20393;-84
2023/03/28 03:43:26;;;;;;;4.90;1.50;;;-3275.90;97.60;;;;;;4984698;28;20034;-83
2023/03/28 03:45:52;;;;;;;6.85;1.05;;;-3275.80;97.50;;;;;;4987965;28;20041;-83
2023/03/28 03:48:17;;;;;;;8.95;1.35;;;-3275.90;97.60;;;;;;4989055;28;20038;-83
2023/03/28 03:50:43;;;;;;;9.90;1.10;;;-3275.90;97.70;;;;;;4987275;28;20464;-84
2023/03/28 03:53:09;;;;;;;8.98;1.33;;;-3276.00;97.80;;;;;;4985324;28;20038;-84
2023/03/28 03:55:38;;;;;;;8.98;1.40;;;-3276.00;97.80;;;;;;4988792;28;20113;-83
2023/03/28 03:58:04;;;;;;;5.35;1.08;;;-3276.00;97.70;;;;;;4986380;28;20035;-83
2023/03/28 04:00:29;;;;;;;8.48;1.33;;;-3276.00;97.90;;;;;;4992976;28;20108;-83
2023/03/28 04:02:55;;;;;;;9.48;1.25;;;-3276.00;97.80;;;;;;4988307;28;20110;-82
2023/03/28 04:05:20;;;;;;;8.43;1.42;;;-3276.00;97.70;;;;;;4990025;28;20074;-82
2023/03/28 04:07:46;;;;;;;3.03;0.98;;;-3275.90;97.60;;;;;;4983548;28;20091;-82
2023/03/28 04:10:11;;;;;;;11.02;1.20;;;-3275.80;97.80;;;;;;4988339;28;20034;-83
2023/03/28 04:12:37;;;;;;;8.55;1.58;;;-3275.90;97.90;;;;;;4974729;28;20434;-82
2023/03/28 04:15:04;;;;;;;8.15;1.15;;;-3275.80;97.90;;;;;;4989355;28;20213;-81
2023/03/28 04:17:33;;;;;;;3.38;1.02;;;-3275.90;98.00;;;;;;4987438;28;20106;-81
2023/03/28 04:20:00;;;;;;;10.15;1.30;;;-3275.80;97.90;;;;;;4986567;28;20069;-81
2023/03/28 04:22:28;;;;;;;9.63;1.30;;;-3275.80;98.00;;;;;;4985337;28;20145;-81
2023/03/28 04:24:57;;;;;;;7.72;1.00;;;-3275.80;98.10;;;;;;4987746;28;20081;-83
2023/03/28 04:27:30;;;;;;;9.05;1.25;;;-3275.80;98.20;;;;;;4987449;28;20386;-82
2023/03/28 04:29:55;;;;;;;7.80;1.17;;;-3275.80;98.30;;;;;;4988340;28;20034;-83
2023/03/28 04:32:23;;;;;;;9.48;1.48;;;-3275.80;98.30;;;;;;4984991;28;20037;-83
2023/03/28 04:34:49;;;;;;;8.82;1.42;;;-3275.80;98.40;;;;;;4980282;28;20035;-83
2023/03/28 04:37:16;;;;;;;11.07;1.60;;;-3275.90;98.50;;;;;;4981415;28;20529;-83
2023/03/28 04:39:45;;;;;;;10.48;1.60;;;-3275.90;98.50;;;;;;4983197;28;20049;-83
2023/03/28 04:42:15;;;;;;;15.00;2.50;;;-3275.90;98.50;;;;;;4982987;28;20487;-81
2023/03/28 04:44:40;;;;;;;9.75;1.85;;;-3275.90;98.60;;;;;;4987096;28;20030;-82
2023/03/28 04:47:07;;;;;;;9.55;1.77;;;-3275.80;98.50;;;;;;4985929;28;20034;-82
2023/03/28 04:49:34;;;;;;;17.50;2.35;;;-3275.80;98.50;;;;;;4985254;28;20101;-82
2023/03/28 04:51:59;;;;;;;12.80;2.20;;;-3275.90;98.80;;;;;;4985020;28;20058;-82
2023/03/28 04:54:25;;;;;;;15.52;1.73;;;-3275.90;98.80;;;;;;4986223;28;20037;-82
2023/03/28 04:56:51;;;;;;;11.52;2.17;;;-3275.90;98.80;;;;;;4986412;28;20114;-82
2023/03/28 04:59:17;;;;;;;16.98;2.83;;;-3275.90;98.80;;;;;;4984462;28;20172;-81
2023/03/28 05:01:47;;;;;;;9.82;2.08;;;-3275.90;98.90;;;;;;4984621;28;20037;-81
2023/03/28 05:04:16;;;;;;;13.25;2.33;;;-3275.80;98.80;;;;;;4987715;28;20383;-83
2023/03/28 05:06:43;;;;;;;13.57;2.05;;;-3275.80;98.80;;;;;;4983611;28;20026;-82
2023/03/28 05:09:09;;;;;;;9.43;1.63;;;-3275.90;99.00;;;;;;4984959;28;20363;-82
2023/03/28 05:11:35;;;;;;;10.00;2.65;;;-3275.90;98.90;;;;;;4984499;28;20599;-82
2023/03/28 05:14:00;;;;;;;6.15;1.73;;;-3275.90;99.00;;;;;;4970083;28;20026;-83
2023/03/28 05:16:26;;;;;;;8.32;2.00;;;-3276.00;99.10;;;;;;4977900;28;20496;-82
2023/03/28 05:18:51;;;;;;;16.92;2.55;;;-3275.90;99.00;;;;;;4984450;28;20038;-82
2023/03/28 05:21:17;;;;;;;12.55;2.45;;;-3276.00;99.10;;;;;;4984283;28;20077;-82
2023/03/28 05:23:42;;;;;;;16.85;2.42;;;-3276.00;99.10;;;;;;4983051;28;20034;-82
2023/03/28 05:26:08;;;;;;;12.60;2.15;;;-3276.10;99.20;;;;;;4984464;28;20454;-82
2023/03/28 05:28:33;;;;;;;12.60;2.63;;;-3276.10;99.10;;;;;;4987216;28;20440;-83
2023/03/28 05:30:59;;;;;;;16.33;2.40;;;-3276.20;99.20;;;;;;4983343;28;20101;-83
2023/03/28 05:33:24;;;;;;;14.40;3.17;;;-3276.20;99.20;;;;;;4983848;28;20026;-82
2023/03/28 05:35:50;;;;;;;13.38;2.28;;;-3276.20;99.20;;;;;;4985356;28;20108;-83
2023/03/28 05:38:16;;;;;;;14.82;2.13;;;-3276.30;99.20;;;;;;4967761;28;20046;-82
2023/03/28 05:40:42;;;;;;;9.70;2.00;;;-3276.30;99.20;;;;;;4984334;28;20026;-81
2023/03/28 05:43:07;;;;;;;11.70;2.60;;;-3276.40;99.30;;;;;;4984848;28;20739;-83
2023/03/28 05:45:33;;;;;;;13.18;2.78;;;-3276.40;99.20;;;;;;4991376;28;20150;-83
2023/03/28 05:47:58;;;;;;;13.57;2.35;;;-3276.40;99.20;;;;;;4984812;28;20092;-79
2023/03/28 05:50:25;;;;;;;19.73;2.10;;;-3276.50;99.30;;;;;;4983144;28;20359;-82
2023/03/28 05:52:50;;;;;;;9.10;2.10;;;-3276.60;99.20;;;;;;4981537;28;20474;-83
2023/03/28 05:55:16;;;;;;;16.15;2.78;;;-3276.60;99.20;;;;;;4986591;28;20488;-82
2023/03/28 05:57:42;;;;;;;17.35;2.38;;;-3276.60;99.20;;;;;;4985260;28;20045;-81
2023/03/28 06:00:12;;;;;;;11.15;2.75;;;-3276.70;99.30;;;;;;4988152;28;20049;-82
2023/03/28 06:02:39;;;;;;;14.88;2.83;;;-3276.70;99.20;;;;;;4984338;28;20092;-83
2023/03/28 06:05:06;;;;;;;13.10;2.90;;;0.00;99.20;;;;;;4983232;28;20030;-82
2023/03/28 06:07:31;;;;;;;10.98;2.55;;;0.00;99.30;;;;;;4988829;28;20486;-82
2023/03/28 06:09:57;;;;;;;16.35;3.20;;;0.00;99.30;;;;;;4983769;28;20117;-82
2023/03/28 06:12:23;;;;;;;11.52;3.70;;;0.10;99.30;;;;;;4983577;28;20062;-83
2023/03/28 06:14:48;;;;;;;20.08;4.50;;;0.10;99.30;;;;;;4967657;28;20390;-83
2023/03/28 06:17:14;;;;;;;14.50;4.05;;;0.20;99.20;;;;;;4984712;28;20078;-82
2023/03/28 06:19:40;;;;;;;18.67;3.55;;;0.20;99.20;;;;;;4983469;28;20627;-83
2023/03/28 06:22:06;;;;;;;17.33;3.30;;;0.30;99.20;;;;;;4986818;28;20113;-83
2023/03/28 06:24:31;;;;;;;15.05;2.92;;;0.40;99.20;;;;;;4988832;28;20054;-82
2023/03/28 06:26:57;;;;;;;20.95;3.35;;;0.60;99.20;;;;;;4990385;28;20035;-83
2023/03/28 06:29:22;;;;;;;22.60;3.80;;;0.60;99.10;;;;;;4987340;28;20050;-83
2023/03/28 06:31:48;;;;;;;24.25;3.53;;;0.60;99.00;;;;;;4989990;28;20030;-85
2023/03/28 06:34:13;;;;;;;12.07;2.65;;;0.70;99.00;;;;;;4988487;28;20461;-83
2023/03/28 06:36:39;;;;;;;12.30;2.50;;;0.70;98.90;;;;;;4985966;28;20109;-83
2023/03/28 06:39:04;;;;;;;13.38;2.08;;;0.80;98.90;;;;;;4987044;28;20079;-83
2023/03/28 06:41:30;;;;;;;19.10;2.90;;;0.90;98.80;;;;;;4974901;28;20130;-83
2023/03/28 06:43:55;;;;;;;14.35;2.22;;;1.00;98.60;;;;;;4972900;28;20022;-85
2023/03/28 06:46:21;;;;;;;9.63;2.22;;;1.10;98.50;;;;;;4987205;28;20030;-85
2023/03/28 06:48:46;;;;;;;17.98;2.90;;;1.10;98.40;;;;;;4992360;28;20026;-85
2023/03/28 06:51:12;;;;;;;16.90;2.67;;;1.30;98.40;;;;;;4986874;28;20717;-85
2023/03/28 06:53:38;;;;;;;16.23;2.60;;;1.40;98.10;;;;;;4970217;28;20036;-84
2023/03/28 06:56:05;;;;;;;14.82;2.35;;;1.50;97.90;;;;;;4982822;28;20241;-83
2023/03/28 06:58:30;;;;;;;12.65;2.80;;;1.70;97.80;;;;;;4985251;28;20391;-83
2023/03/28 07:00:58;;;;;;;19.00;2.65;;;1.90;97.20;;;;;;4987778;28;20037;-83
2023/03/28 07:03:24;;;;;;;21.15;2.55;;;2.00;96.80;;;;;;4985675;28;20463;-84
2023/03/28 07:05:49;;;;;;;12.25;2.25;;;2.10;96.50;;;;;;4971447;28;20058;-83
2023/03/28 07:08:15;;;;;;;12.98;1.95;;;2.10;96.30;;;;;;4986720;28;20061;-83
2023/03/28 07:10:41;;;;;;;12.35;2.30;;;2.30;96.20;;;;;;4966712;28;20047;-80
2023/03/28 07:13:07;;;;;;;13.77;2.38;;;2.50;95.70;;;;;;4981128;28;20479;-81
2023/03/28 07:15:33;;;;;;;18.83;2.58;;;2.60;95.30;;;;;;4987855;28;20046;-83
2023/03/28 07:17:59;;;;;;;15.35;2.25;;;2.50;95.00;;;;;;4986079;28;20034;-81
2023/03/28 07:20:26;;;;;;;17.42;2.83;;;2.30;95.10;;;;;;4980614;28;20121;-80
2023/03/28 07:22:52;;;;;;;15.30;2.40;;;2.20;95.50;;;;;;4980348;28;20057;-83
2023/03/28 07:25:17;;;;;;;12.27;2.15;;;2.20;95.70;;;;;;4971935;28;20108;-83
2023/03/28 07:27:43;;;;;;;13.32;2.08;;;2.30;95.70;;;;;;4989036;28;20054;-84
2023/03/28 07:30:10;;;;;;;8.18;1.95;;;2.50;95.90;;;;;;4985465;28;20092;-82
2023/03/28 07:32:35;;;;;;;15.15;2.38;;;2.60;95.60;;;;;;4966886;28;20439;-83
2023/03/28 07:35:02;;;;;;;11.18;2.15;;;2.70;95.60;;;;;;4989114;28;20047;-82
2023/03/28 07:37:28;;;;;;;12.57;2.10;;;2.70;94.90;;;;;;4967762;28;20480;-83
2023/03/28 07:39:55;;;;;;;9.93;1.80;;;2.70;94.70;;;;;;4999288;28;20065;-83
2023/03/28 07:42:20;;;;;;;9.68;2.08;;;2.90;94.70;;;;;;4994387;28;20022;-84
2023/03/28 07:44:46;;;;;;;12.20;1.75;;;3.10;94.30;;;;;;4989589;28;20057;-80
2023/03/28 07:47:11;;;;;;;8.48;1.60;;;3.10;93.90;;;;;;4986909;28;20026;-80
2023/03/28 07:49:38;;;;;;;14.15;2.47;;;3.30;93.60;;;;;;4991329;28;20430;-78
2023/03/28 07:52:04;;;;;;;10.55;2.00;;;3.20;93.80;;;;;;4981543;28;20041;-84
2023/03/28 07:54:31;;;;;;;11.23;1.98;;;3.40;93.90;;;;;;4968625;28;20062;-84
2023/03/28 07:56:57;;;;;;;11.10;2.03;;;3.50;93.40;;;;;;4961239;28;20133;-84
2023/03/28 07:59:23;;;;;;;9.52;2.30;;;3.60;93.50;;;;;;4983711;28;20158;-83
2023/03/28 08:01:49;;;;;;;13.32;1.98;;;3.70;93.50;;;;;;4970182;28;20126;-81
2023/03/28 08:04:14;;;;;;;9.93;1.73;;;3.70;92.90;;;;;;4985164;28;20077;-82
2023/03/28 08:06:40;;;;;;;10.75;1.70;;;3.70;92.70;;;;;;4986353;28;20144;-83
2023/03/28 08:09:07;;;;;;;11.23;2.03;;;3.90;92.50;;;;;;4986521;28;20036;-82
2023/03/28 08:11:34;;;;;;;6.80;2.03;;;4.10;92.60;;;;;;4966493;28;20138;-83
2023/03/28 08:14:01;;;;;;;12.75;2.22;;;4.30;92.00;;;;;;4984307;28;20045;-83
2023/03/28 08:16:28;;;;;;;8.63;1.80;;;4.70;91.60;;;;;;4989341;28;20120;-82
2023/03/28 08:18:53;;;;;;;13.90;1.73;;;4.60;90.90;;;;;;4982304;28;20089;-82
2023/03/28 08:21:19;;;;;;;11.70;1.98;;;4.80;89.90;;;;;;4985081;28;20030;-84
2023/03/28 08:23:44;;;;;;;10.45;1.45;;;4.80;90.00;;;;;;4981534;28;20043;-84
2023/03/28 08:26:11;;;;;;;6.53;1.50;;;5.10;89.10;;;;;;4978632;28;20113;-80
2023/03/28 08:28:37;;;;;;;8.77;1.52;;;5.00;88.90;;;;;;4982418;28;20128;-82
2023/03/28 08:31:14;;;;;;;9.27;1.85;;;5.20;89.10;;;;;;4985953;28;20043;-81
2023/03/28 08:33:41;;;;;;;9.45;1.42;;;5.10;88.90;;;;;;4982347;28;20100;-82
2023/03/28 08:36:08;;;;;;;9.60;1.90;;;5.00;88.70;;;;;;4967674;28;20489;-82
2023/03/28 08:38:33;;;;;;;9.52;1.58;;;4.90;88.80;;;;;;4964152;28;20119;-82
2023/03/28 08:41:12;;;;;;;10.90;1.55;;;5.10;88.90;;;;;;4959348;28;20621;-82
2023/03/28 08:44:09;;;;;;;5.85;1.73;;;5.10;88.30;;;;;;4983491;28;20330;-80
2023/03/28 08:46:38;;;;;;;11.15;1.73;;;5.20;88.90;;;;;;4980480;28;20056;-76
2023/03/28 08:49:08;;;;;;;11.40;1.70;;;5.20;87.90;;;;;;4963487;28;20038;-77
2023/03/28 08:51:39;;;;;;;9.07;1.48;;;5.30;87.20;;;;;;4958231;28;20089;-77
2023/03/28 08:54:19;;;;;;;6.03;1.55;;;5.40;85.80;;;;;;4988653;28;20034;-77
2023/03/28 08:56:52;;;;;;;8.43;2.10;;;5.50;86.40;;;;;;4966975;28;20053;-78
2023/03/28 08:59:49;;;;;;;6.32;1.25;;;5.60;86.70;;;;;;4979951;28;20057;-79
2023/03/28 09:02:21;;;;;;;8.35;1.17;;;5.90;86.60;;;;;;4983818;28;20435;-83
2023/03/28 09:04:47;;;;;;;8.98;1.30;;;6.30;84.60;;;;;;4966561;28;20089;-83
2023/03/28 09:07:22;;;;;;;8.13;1.65;;;6.30;84.50;;;;;;4966491;28;20031;-82
2023/03/28 09:10:07;;;;;;;7.20;1.75;;;5.90;83.30;;;;;;4975250;28;20050;-76
2023/03/28 09:12:47;;;;;;;5.28;1.42;;;5.70;83.70;;;;;;4985382;28;20125;-76
2023/03/28 09:15:37;;;;;;;5.82;1.52;;;5.60;83.50;;;;;;4982705;28;20038;-76
2023/03/28 09:18:36;;;;;;;13.25;1.38;;;5.80;83.50;;;;;;4987920;28;20458;-76
2023/03/28 09:21:29;;;;;;;10.13;1.65;;;5.70;84.70;;;;;;4975760;28;20152;-79
2023/03/28 09:24:28;;;;;;;10.75;1.52;;;5.60;84.60;;;;;;4976224;28;20115;-77
2023/03/28 09:27:04;;;;;;;9.07;1.45;;;5.60;84.90;;;;;;4985620;28;20117;-79
2023/03/28 09:29:32;;;;;;;6.35;1.10;;;5.60;84.40;;;;;;4964568;28;20553;-77
2023/03/28 09:32:10;;;;;;;5.72;1.23;;;5.90;82.90;;;;;;4985273;28;20117;-79
2023/03/28 09:34:38;;;;;;;3.78;1.10;;;6.00;82.20;;;;;;4980218;28;20030;-81
2023/03/28 09:37:14;;;;;;;8.90;1.20;;;6.30;80.00;;;;;;4986281;28;20100;-79
2023/03/28 09:39:44;;;;;;;7.60;1.50;;;7.00;80.10;;;;;;4987733;28;20048;-79
2023/03/28 09:42:18;;;;;;;7.25;1.38;;;6.80;78.80;;;;;;4988060;28;20350;-79
2023/03/28 09:44:52;;;;;;;4.13;0.80;;;7.10;78.50;;;;;;4983941;28;20038;-80
2023/03/28 09:47:17;;;;;;;7.47;1.45;;;6.80;79.10;;;;;;4985094;28;20042;-79
2023/03/28 09:49:43;;;;;;;4.40;1.10;;;6.20;77.80;;;;;;4981053;28;20387;-79
2023/03/28 09:52:14;;;;;;;5.57;1.13;;;6.20;79.50;;;;;;4983778;28;20047;-80
2023/03/28 09:54:40;;;;;;;4.80;1.38;;;6.10;79.30;;;;;;4979146;28;20038;-80
2023/03/28 09:57:06;;;;;;;7.35;1.77;;;6.10;80.00;;;;;;4970026;28;20113;-80
2023/03/28 09:59:34;;;;;;;7.07;1.30;;;6.60;77.90;;;;;;4970350;28;20134;-80
2023/03/28 10:02:02;;;;;;;10.30;1.45;;;7.10;77.50;;;;;;4984829;28;20037;-80
2023/03/28 10:04:28;;;;;;;3.75;0.80;;;7.20;76.00;;;;;;4988508;28;20050;-81
2023/03/28 10:07:08;;;;;;;7.53;1.52;;;7.00;74.20;;;;;;4985259;28;20092;-81
2023/03/28 10:09:56;;;;;;;6.80;1.50;;;7.80;73.00;;;;;;4986291;28;20141;-79
2023/03/28 10:12:33;;;;;;;6.47;1.35;;;8.30;71.40;;;;;;4987219;28;20161;-78
2023/03/28 10:14:59;;;;;;;7.28;1.52;;;8.10;71.70;;;;;;4988282;28;20066;-79
2023/03/28 10:17:31;;;;;;;6.90;1.40;;;7.10;77.60;;;;;;4987366;28;20062;-75
2023/03/28 10:20:17;;;;;;;10.23;1.60;;;6.60;77.10;;;;;;4989846;28;20448;-77
2023/03/28 10:22:46;;;;;;;6.30;0.80;;;7.50;77.50;;;;;;4990445;28;20030;-80
2023/03/28 10:25:20;;;;;;;11.07;1.48;;;8.10;75.80;;;;;;4986800;28;20110;-79
2023/03/28 10:27:47;;;;;;;7.18;1.42;;;7.40;76.10;;;;;;4988559;28;20071;-79
2023/03/28 10:30:12;;;;;;;6.40;1.13;;;7.20;78.70;;;;;;4987609;28;20030;-82
2023/03/28 10:32:39;;;;;;;6.30;1.42;;;7.00;78.00;;;;;;4983290;28;21231;-83
2023/03/28 10:35:28;;;;;;;6.05;1.60;;;7.40;76.60;;;;;;4986278;28;20030;-79
2023/03/28 10:37:54;;;;;;;10.65;1.98;;;7.90;74.00;;;;;;4984147;28;20046;-82
2023/03/28 10:40:20;;;;;;;7.53;1.73;;;8.20;71.50;;;;;;4993707;28;20034;-82
2023/03/28 10:42:49;;;;;;;9.55;1.80;;;8.60;70.20;;;;;;4994556;28;20360;-82
2023/03/28 10:45:20;;;;;;;7.55;1.35;;;8.30;68.40;;;;;;4990649;28;20091;-83
2023/03/28 10:47:49;;;;;;;6.32;1.55;;;8.20;73.00;;;;;;4995260;28;20030;-82
2023/03/28 10:50:25;;;;;;;8.30;1.70;;;8.00;73.40;;;;;;4992280;28;20132;-82
2023/03/28 10:53:23;;;;;;;10.82;2.03;;;7.70;69.40;;;;;;4994400;28;20070;-82
2023/03/28 10:55:54;;;;;;;5.75;1.13;;;8.00;72.90;;;;;;4991886;28;20134;-83
2023/03/28 10:58:34;;;;;;;;;;;7.50;71.50;;;;;;4994221;28;20375;-82
2023/03/28 11:01:18;;;;;;;9.38;1.65;;;7.40;72.40;;;;;;4983140;28;19910;-83
2023/03/28 11:04:18;;;;;;;9.43;1.67;;;7.00;73.80;;;;;;4992197;28;20034;-82
2023/03/28 11:06:58;;;;;;;7.20;1.35;;;7.00;73.60;;;;;;4989297;28;20444;-82
2023/03/28 11:09:42;;;;;;;6.18;1.50;;;6.90;73.80;;;;;;4993539;28;20181;-82
2023/03/28 11:12:27;;;;;;;6.68;1.20;;;6.70;72.50;;;;;;4989477;28;20108;-82
2023/03/28 11:15:05;;;;;;;6.20;1.42;;;6.90;71.80;;;;;;5002827;28;20094;-83
2023/03/28 11:17:49;;;;;;;9.23;1.67;;;6.80;71.60;;;;;;5013926;28;20095;-82
2023/03/28 11:20:43;;;;;;;11.07;1.50;;;6.60;72.80;;;;;;4993517;28;20034;-84
2023/03/28 11:23:34;;;;;;;8.38;1.70;;;6.50;73.20;;;;;;5012083;28;20148;-82
2023/03/28 11:26:13;;;;;;;11.98;2.05;;;6.50;75.80;;;;;;4993507;28;20479;-83
2023/03/28 11:29:15;;;;;;;7.18;2.13;;;6.70;75.80;;;;;;5003748;28;20034;-81
2023/03/28 11:31:58;;;;;;;7.78;1.52;;;6.60;72.10;;;;;;4993520;28;20065;-83
2023/03/28 11:34:53;;;;;;;9.38;1.50;;;6.90;71.60;;;;;;4997093;28;20084;-84
2023/03/28 11:37:26;;;;;;;10.70;1.52;;;7.00;71.10;;;;;;4976481;28;20096;-82
2023/03/28 11:39:56;;;;;;;9.38;1.55;;;7.10;69.20;;;;;;5007375;28;20026;-82
2023/03/28 11:42:35;;;;;;;6.97;1.33;;;7.60;71.20;;;;;;4981785;28;20050;-83
2023/03/28 11:45:23;;;;;;;7.95;1.67;;;7.60;68.40;;;;;;5001072;28;20038;-83
2023/03/28 11:48:12;;;;;;;11.13;1.83;;;7.90;69.40;;;;;;4992721;28;20034;-84
2023/03/28 11:51:00;;;;;;;7.90;2.10;;;7.70;69.20;;;;;;4997851;28;20394;-83
2023/03/28 11:53:34;;;;;;;8.75;2.13;;;7.60;70.30;;;;;;5008235;28;20034;-83
2023/03/28 11:56:08;;;;;;;9.82;1.65;;;7.70;70.90;;;;;;5002498;28;20141;-85
2023/03/28 11:58:39;;;;;;;12.13;2.33;;;8.10;72.50;;;;;;4989618;28;20495;-84
2023/03/28 12:01:10;;;;;;;9.48;1.90;;;7.90;72.90;;;;;;4988733;28;20027;-83
2023/03/28 12:03:45;;;;;;;9.70;1.48;;;8.20;70.40;;;;;;4989348;28;20084;-83
2023/03/28 12:06:28;;;;;;;6.35;1.85;;;8.60;69.30;;;;;;4988344;28;20085;-84
2023/03/28 12:09:01;;;;;;;4.80;1.42;;;9.10;69.00;;;;;;4980529;28;20052;-84
2023/03/28 12:11:39;;;;;;;11.35;1.90;;;8.70;69.40;;;;;;4972065;28;20069;-83
2023/03/28 12:14:25;;;;;;;10.55;1.83;;;8.90;69.50;;;;;;5002072;28;20386;-84
2023/03/28 12:16:52;;;;;;;7.07;1.42;;;8.80;68.60;;;;;;4990710;28;20117;-85
2023/03/28 12:19:29;;;;;;;8.23;1.35;;;8.90;67.40;;;;;;4968646;28;20103;-82
2023/03/28 12:22:11;;;;;;;9.38;1.48;;;8.90;67.20;;;;;;4987315;28;20018;-83
2023/03/28 12:24:45;;;;;;;6.80;1.27;;;8.60;65.80;;;;;;4989813;28;20117;-83
2023/03/28 12:27:36;;;;;;;8.48;1.30;;;8.30;66.50;;;;;;4990569;28;20034;-83
2023/03/28 12:30:19;;;;;;;13.20;2.15;;;8.10;68.50;;;;;;4989749;28;20351;-81
2023/03/28 12:33:15;;;;;;;11.43;1.90;;;7.90;69.50;;;;;;4993998;28;20018;-83
2023/03/28 12:35:51;;;;;;;12.57;1.90;;;7.90;68.70;;;;;;4980499;28;20046;-82
2023/03/28 12:38:49;;;;;;;6.97;1.52;;;8.20;70.10;;;;;;4989156;28;20485;-82
2023/03/28 12:41:18;;;;;;;8.00;1.50;;;8.10;68.30;;;;;;4990097;28;20061;-82
2023/03/28 12:43:54;;;;;;;8.50;1.70;;;7.90;67.80;;;;;;4989191;28;20096;-84
2023/03/28 12:46:54;;;;;;;10.95;1.90;;;8.00;69.00;;;;;;4970751;28;20076;-84
2023/03/28 12:49:35;;;;;;;13.02;2.00;;;8.20;68.30;;;;;;4989660;28;20161;-79
2023/03/28 12:52:04;;;;;;;7.75;1.90;;;8.30;68.00;;;;;;4990391;28;20073;-83
2023/03/28 12:54:32;;;;;;;11.35;3.30;;;8.30;68.90;;;;;;4992643;28;20041;-82
2023/03/28 12:57:09;;;;;;;11.13;2.47;;;8.40;68.40;;;;;;4972609;28;20130;-83
2023/03/28 12:59:38;;;;;;;12.77;2.13;;;8.50;68.00;;;;;;4971586;28;20109;-84
2023/03/28 13:02:16;;;;;;;10.15;2.08;;;8.70;67.20;;;;;;4989574;28;20438;-83